createdAt,value
2022-09-02T00:01:25.137Z,101889.25
2022-09-02T00:03:56.158Z,101894.44
2022-09-02T00:06:24.237Z,101903.47
2022-09-02T00:08:53.824Z,101890.66
2022-09-02T00:11:23.829Z,101906.13
2022-09-02T00:13:52.589Z,101922.31
2022-09-02T00:16:23.784Z,101916.03
2022-09-02T00:18:52.491Z,101917.13
2022-09-02T00:21:21.546Z,101899.06
2022-09-02T00:23:50.842Z,101912.75
2022-09-02T00:26:20.785Z,101896.81
2022-09-02T00:28:56.025Z,101870.03
2022-09-02T00:31:25.547Z,101867.72
2022-09-02T00:33:53.502Z,101899.81
2022-09-02T00:36:21.967Z,101893.97
2022-09-02T00:38:49.967Z,101884.53
2022-09-02T00:41:21.657Z,101886.50
2022-09-02T00:43:53.632Z,101921.41
2022-09-02T00:46:24.344Z,101908.50
2022-09-02T00:48:58.265Z,101898.69
2022-09-02T00:51:27.602Z,101889.69
2022-09-02T00:53:55.565Z,101892.66
2022-09-02T00:56:29.114Z,101896.91
2022-09-02T00:58:58.143Z,101863.75
2022-09-02T01:01:27.257Z,101883.22
2022-09-02T01:03:55.555Z,101884.66
2022-09-02T01:06:27.542Z,101895.94
2022-09-02T01:09:03.362Z,101875.13
2022-09-02T01:11:39.454Z,101872.13
2022-09-02T01:14:07.405Z,101845.53
2022-09-02T01:16:42.175Z,101846.78
2022-09-02T01:19:17.705Z,101855.59
2022-09-02T01:21:49.495Z,101845.84
2022-09-02T01:24:18.582Z,101863.47
2022-09-02T01:26:46.453Z,101843.00
2022-09-02T01:29:16.410Z,101827.16
2022-09-02T01:31:44.289Z,101836.41
2022-09-02T01:34:12.416Z,101823.50
2022-09-02T01:36:42.341Z,101820.59
2022-09-02T01:39:13.785Z,101828.69
2022-09-02T01:41:42.070Z,101822.53
2022-09-02T01:44:10.435Z,101821.59
2022-09-02T01:46:38.538Z,101834.09
2022-09-02T01:49:06.708Z,101837.25
2022-09-02T01:51:34.553Z,101846.81
2022-09-02T01:54:02.327Z,101815.00
2022-09-02T01:56:31.501Z,101800.13
2022-09-02T01:58:59.415Z,101791.84
2022-09-02T02:01:27.336Z,101790.59
2022-09-02T02:03:55.224Z,101809.28
2022-09-02T02:06:24.133Z,101790.81
2022-09-02T02:08:52.658Z,101794.75
2022-09-02T02:11:21.271Z,101789.13
2022-09-02T02:13:50.876Z,101790.72
2022-09-02T02:16:18.711Z,101797.78
2022-09-02T02:18:46.472Z,101812.78
2022-09-02T02:21:14.259Z,101803.16
2022-09-02T02:23:42.234Z,101796.75
2022-09-02T02:26:10.204Z,101787.66
2022-09-02T02:28:38.499Z,101801.22
2022-09-02T02:31:08.053Z,101795.56
2022-09-02T02:33:36.569Z,101790.00
2022-09-02T02:36:05.859Z,101803.41
2022-09-02T02:38:34.914Z,101794.88
2022-09-02T02:41:06.296Z,101780.47
2022-09-02T02:43:34.780Z,101775.13
2022-09-02T02:46:02.612Z,101762.47
2022-09-02T02:48:31.909Z,101765.00
2022-09-02T02:50:59.690Z,101775.13
2022-09-02T02:53:29.626Z,101766.56
2022-09-02T02:55:57.460Z,101758.84
2022-09-02T02:58:25.248Z,101764.13
2022-09-02T03:00:53.565Z,101764.09
2022-09-02T03:03:22.549Z,101768.78
2022-09-02T03:05:52.446Z,101767.09
2022-09-02T03:08:21.452Z,101772.28
2022-09-02T03:10:54.488Z,101782.19
2022-09-02T03:13:23.355Z,101796.81
2022-09-02T03:15:51.447Z,101790.50
2022-09-02T03:18:19.246Z,101779.69
2022-09-02T03:20:47.195Z,101776.00
2022-09-02T03:23:18.019Z,101786.75
2022-09-02T03:25:46.700Z,101790.06
2022-09-02T03:28:15.434Z,101771.09
2022-09-02T03:30:43.593Z,101773.78
2022-09-02T03:33:11.384Z,101767.81
2022-09-02T03:35:41.371Z,101766.22
2022-09-02T03:38:09.998Z,101767.81
2022-09-02T03:40:40.234Z,101761.09
2022-09-02T03:43:08.118Z,101757.16
2022-09-02T03:45:36.044Z,101755.38
2022-09-02T03:48:04.573Z,101773.41
2022-09-02T03:50:36.454Z,101786.59
2022-09-02T03:53:05.518Z,101776.41
2022-09-02T03:55:33.495Z,101769.84
2022-09-02T03:58:07.877Z,101765.94
2022-09-02T04:00:38.324Z,101758.69
2022-09-02T04:03:07.302Z,101751.44
2022-09-02T04:05:35.215Z,101750.72
2022-09-02T04:08:03.183Z,101767.03
2022-09-02T04:10:30.998Z,101767.72
2022-09-02T04:12:58.832Z,101788.16
2022-09-02T04:15:28.034Z,101766.41
2022-09-02T04:17:56.787Z,101759.09
2022-09-02T04:20:24.516Z,101750.28
2022-09-02T04:22:52.517Z,101752.19
2022-09-02T04:25:20.414Z,101753.03
2022-09-02T04:27:55.419Z,101757.94
2022-09-02T04:30:25.258Z,101780.53
2022-09-02T04:32:54.454Z,101780.31
2022-09-02T04:35:22.320Z,101775.13
2022-09-02T04:37:50.233Z,101756.31
2022-09-02T04:40:18.086Z,101756.03
2022-09-02T04:42:47.257Z,101747.63
2022-09-02T04:45:15.395Z,101750.38
2022-09-02T04:47:43.255Z,101752.94
2022-09-02T04:50:15.049Z,101750.25
2022-09-02T04:52:42.823Z,101750.84
2022-09-02T04:55:11.108Z,101745.81
2022-09-02T04:57:39.446Z,101749.19
2022-09-02T05:00:09.686Z,101748.75
2022-09-02T05:02:37.598Z,101750.13
2022-09-02T05:05:05.907Z,101750.38
2022-09-02T05:07:36.611Z,101760.94
2022-09-02T05:10:05.794Z,101760.53
2022-09-02T05:12:35.304Z,101758.59
2022-09-02T05:15:03.608Z,101757.97
2022-09-02T05:17:33.105Z,101760.69
2022-09-02T05:20:00.946Z,101768.47
2022-09-02T05:22:29.539Z,101783.09
2022-09-02T05:24:58.699Z,101794.03
2022-09-02T05:27:26.845Z,101802.41
2022-09-02T05:29:59.532Z,101807.72
2022-09-02T05:32:28.164Z,101800.72
2022-09-02T05:34:56.395Z,101802.41
2022-09-02T05:37:25.486Z,101791.59
2022-09-02T05:39:53.753Z,101801.09
2022-09-02T05:42:22.902Z,101808.09
2022-09-02T05:44:50.646Z,101805.03
2022-09-02T05:47:18.450Z,101789.53
2022-09-02T05:49:46.290Z,101795.41
2022-09-02T05:52:14.535Z,101820.44
2022-09-02T05:54:42.512Z,101832.84
2022-09-02T05:57:12.879Z,101819.75
2022-09-02T05:59:43.224Z,101799.44
2022-09-02T06:02:12.281Z,101799.19
2022-09-02T06:04:40.905Z,101805.06
2022-09-02T06:07:09.077Z,101812.78
2022-09-02T06:09:41.003Z,101806.91
2022-09-02T06:12:09.342Z,101808.94
2022-09-02T06:14:38.061Z,101811.38
2022-09-02T06:17:07.256Z,101804.47
2022-09-02T06:19:35.594Z,101805.03
2022-09-02T06:22:05.383Z,101830.47
2022-09-02T06:24:33.593Z,101844.81
2022-09-02T06:27:01.906Z,101840.28
2022-09-02T06:29:30.088Z,101854.72
2022-09-02T06:31:58.800Z,101865.06
2022-09-02T06:34:28.264Z,101868.97
2022-09-02T06:36:57.610Z,101902.34
2022-09-02T06:39:26.900Z,101903.78
2022-09-02T06:41:55.776Z,101928.31
2022-09-02T06:44:23.829Z,101937.84
2022-09-02T06:46:57.762Z,101935.25
2022-09-02T06:49:28.468Z,101953.50
2022-09-02T06:51:57.432Z,101962.31
2022-09-02T06:54:25.702Z,101950.47
2022-09-02T06:56:53.551Z,101958.66
2022-09-02T06:59:22.522Z,101962.16
2022-09-02T07:01:51.301Z,101957.28
2022-09-02T07:04:37.279Z,101966.19
2022-09-02T07:07:08.402Z,101988.06
2022-09-02T07:09:36.300Z,101972.28
2022-09-02T07:12:05.731Z,101974.22
2022-09-02T07:14:37.896Z,101979.56
2022-09-02T07:17:05.954Z,101992.28
2022-09-02T07:19:33.796Z,102002.72
2022-09-02T07:22:01.816Z,102012.88
2022-09-02T07:24:31.068Z,102028.66
2022-09-02T07:26:58.814Z,102021.09
2022-09-02T07:29:26.614Z,102028.50
2022-09-02T07:31:54.401Z,102024.66
2022-09-02T07:34:22.612Z,102055.16
2022-09-02T07:36:50.494Z,102086.84
2022-09-02T07:39:19.857Z,102086.50
2022-09-02T07:41:51.836Z,102091.88
2022-09-02T07:44:21.476Z,102089.47
2022-09-02T07:46:49.291Z,102096.75
2022-09-02T07:49:22.054Z,102103.84
2022-09-02T07:51:52.167Z,102108.25
2022-09-02T07:54:22.275Z,102116.44
2022-09-02T07:56:51.420Z,102117.75
2022-09-02T07:59:19.963Z,102116.00
2022-09-02T08:01:48.878Z,102140.94
2022-09-02T08:04:18.692Z,102144.97
2022-09-02T08:06:47.029Z,102144.75
2022-09-02T08:09:14.882Z,102154.22
2022-09-02T08:11:45.181Z,102156.69
2022-09-02T08:14:18.122Z,102179.00
2022-09-02T08:16:47.238Z,102175.06
2022-09-02T08:19:15.551Z,102176.75
2022-09-02T08:21:43.311Z,102171.03
2022-09-02T08:24:11.133Z,102179.78
2022-09-02T08:26:39.013Z,102186.88
2022-09-02T08:29:07.384Z,102191.09
2022-09-02T08:31:38.812Z,102192.75
2022-09-02T08:34:06.989Z,102192.09
2022-09-02T08:36:34.873Z,102193.09
2022-09-02T08:39:04.123Z,102199.84
2022-09-02T08:41:38.454Z,102197.75
2022-09-02T08:44:07.876Z,102197.81
2022-09-02T08:46:37.194Z,102198.66
2022-09-02T08:49:08.807Z,102203.84
2022-09-02T08:51:42.816Z,102194.63
2022-09-02T08:54:18.126Z,102192.72
2022-09-02T08:56:46.010Z,102188.91
2022-09-02T08:59:15.120Z,102194.91
2022-09-02T09:01:49.722Z,102189.88
2022-09-02T09:04:22.868Z,102184.66
2022-09-02T09:07:12.564Z,102186.97
2022-09-02T09:09:50.607Z,102179.03
2022-09-02T09:12:30.968Z,102186.50
2022-09-02T09:15:06.482Z,102185.16
2022-09-02T09:17:44.196Z,102183.97
2022-09-02T09:20:19.753Z,102183.66
2022-09-02T09:22:50.787Z,102182.44
2022-09-02T09:25:19.564Z,102182.56
2022-09-02T09:27:47.300Z,102172.09
2022-09-02T09:30:15.847Z,102177.50
2022-09-02T09:32:48.797Z,102169.53
2022-09-02T09:35:18.271Z,102161.75
2022-09-02T09:37:48.093Z,102160.50
2022-09-02T09:40:38.415Z,102158.00
2022-09-02T09:43:16.162Z,102164.81
2022-09-02T09:45:45.796Z,102155.09
2022-09-02T09:48:25.932Z,102148.34
2022-09-02T09:51:13.284Z,102149.75
2022-09-02T09:53:41.190Z,102157.34
2022-09-02T09:56:30.358Z,102155.66
2022-09-02T09:58:58.164Z,102155.47
2022-09-02T10:01:29.842Z,102150.09
2022-09-02T10:04:01.368Z,102159.19
2022-09-02T10:06:39.375Z,102144.72
2022-09-02T10:09:26.117Z,102148.09
2022-09-02T10:11:57.879Z,102134.69
2022-09-02T10:14:29.176Z,102139.66
2022-09-02T10:17:05.620Z,102132.97
2022-09-02T10:19:42.913Z,102133.41
2022-09-02T10:23:00.039Z,102125.09
2022-09-02T10:25:33.779Z,102130.66
2022-09-02T10:28:10.230Z,102128.09
2022-09-02T10:30:45.810Z,102123.97
2022-09-02T10:33:25.365Z,102127.56
2022-09-02T10:36:00.490Z,102113.28
2022-09-02T10:38:41.352Z,102120.03
2022-09-02T10:41:27.492Z,102123.75
2022-09-02T10:44:06.904Z,102116.50
2022-09-02T10:46:42.565Z,102096.22
2022-09-02T10:49:20.465Z,102094.91
2022-09-02T10:51:58.401Z,102091.38
2022-09-02T10:54:40.596Z,102094.34
2022-09-02T10:57:13.472Z,102103.75
2022-09-02T10:59:44.572Z,102096.44
2022-09-02T11:02:16.707Z,102103.34
2022-09-02T11:04:49.810Z,102091.00
2022-09-02T11:07:25.944Z,102093.31
2022-09-02T11:09:58.289Z,102091.25
2022-09-02T11:12:32.099Z,102095.31
2022-09-02T11:15:07.598Z,102091.25
2022-09-02T11:17:41.657Z,102092.69
2022-09-02T11:20:16.327Z,102084.94
2022-09-02T11:22:56.219Z,102083.91
2022-09-02T11:25:26.997Z,102074.25
2022-09-02T11:28:05.967Z,102071.19
2022-09-02T11:30:43.144Z,102071.00
2022-09-02T11:33:17.282Z,102079.13
2022-09-02T11:35:45.721Z,102071.56
2022-09-02T11:38:31.383Z,102067.25
2022-09-02T11:41:36.056Z,102076.44
2022-09-02T11:44:22.468Z,102071.44
2022-09-02T11:47:25.082Z,102070.09
2022-09-02T11:50:14.387Z,102068.31
2022-09-02T11:52:59.002Z,102069.03
2022-09-02T11:55:35.319Z,102064.97
2022-09-02T11:58:04.079Z,102065.38
2022-09-02T12:00:36.570Z,102068.66
2022-09-02T12:03:40.928Z,102057.63
2022-09-02T12:06:14.287Z,102057.72
2022-09-02T12:09:03.824Z,102050.13
2022-09-02T12:11:53.204Z,102064.44
2022-09-02T12:15:06.531Z,102064.00
2022-09-02T12:17:41.327Z,102056.81
2022-09-02T12:20:11.525Z,102050.53
2022-09-02T12:22:41.792Z,102049.97
2022-09-02T12:25:40.402Z,102037.72
2022-09-02T12:28:19.012Z,102026.31
2022-09-02T12:31:15.434Z,102033.53
2022-09-02T12:33:45.195Z,102022.81
2022-09-02T12:36:46.722Z,102026.53
2022-09-02T12:39:53.231Z,102026.03
2022-09-02T12:42:27.766Z,102014.28
2022-09-02T12:45:06.804Z,102019.16
2022-09-02T12:47:49.014Z,102030.31
2022-09-02T12:50:24.988Z,102019.03
2022-09-02T12:52:54.985Z,102003.34
2022-09-02T12:55:26.239Z,101999.44
2022-09-02T12:57:57.052Z,101999.69
2022-09-02T13:00:35.613Z,101998.16
2022-09-02T13:03:19.173Z,101987.97
2022-09-02T13:05:56.725Z,101990.09
2022-09-02T13:09:01.434Z,102006.53
2022-09-02T13:12:05.637Z,101995.75
2022-09-02T13:14:58.068Z,101990.31
2022-09-02T13:17:46.515Z,101985.81
2022-09-02T13:20:50.254Z,101990.91
2022-09-02T13:24:14.747Z,101983.34
2022-09-02T13:27:11.934Z,101994.53
2022-09-02T13:30:03.006Z,101998.22
2022-09-02T13:32:34.057Z,101980.97
2022-09-02T13:35:05.161Z,101989.53
2022-09-02T13:37:36.738Z,101979.16
2022-09-02T13:40:08.799Z,101978.53
2022-09-02T13:42:37.295Z,101969.16
2022-09-02T13:45:14.586Z,101978.69
2022-09-02T13:47:48.155Z,101980.59
2022-09-02T13:50:18.857Z,101969.97
2022-09-02T13:55:43.595Z,101971.22
2022-09-02T13:58:23.661Z,101961.81
2022-09-02T14:00:51.524Z,101961.69
2022-09-02T14:03:22.259Z,101958.56
2022-09-02T14:05:53.090Z,101976.06
2022-09-02T14:08:24.157Z,101963.78
2022-09-02T14:10:53.870Z,101958.66
2022-09-02T14:13:23.402Z,101964.63
2022-09-02T14:15:51.202Z,101949.34
2022-09-02T14:18:22.119Z,101938.50
2022-09-02T14:20:59.626Z,101942.00
2022-09-02T14:23:29.278Z,101935.44
2022-09-02T14:25:59.270Z,101940.75
2022-09-02T14:28:29.315Z,101954.75
2022-09-02T14:31:00.598Z,101953.28
2022-09-02T14:33:39.928Z,101948.06
2022-09-02T14:36:09.918Z,101953.97
2022-09-02T14:38:50.023Z,101962.50
2022-09-02T14:41:23.067Z,101952.94
2022-09-02T14:43:52.973Z,101950.22
2022-09-02T14:46:28.965Z,101953.19
2022-09-02T14:49:02.981Z,101952.91
2022-09-02T14:51:37.835Z,101954.06
2022-09-02T14:54:06.956Z,101947.66
2022-09-02T14:56:49.993Z,101956.75
2022-09-02T14:59:18.273Z,101952.38
2022-09-02T15:01:48.149Z,101953.34
2022-09-02T15:04:18.664Z,101948.34
2022-09-02T15:06:47.601Z,101949.44
2022-09-02T15:09:16.787Z,101952.69
2022-09-02T15:11:48.836Z,101962.16
2022-09-02T15:14:16.660Z,101949.69
2022-09-02T15:16:44.430Z,101956.75
2022-09-02T15:19:12.207Z,101951.72
2022-09-02T15:21:41.490Z,101952.78
2022-09-02T15:24:09.290Z,101953.44
2022-09-02T15:26:37.067Z,101956.50
2022-09-02T15:29:05.185Z,101948.69
2022-09-02T15:31:33.098Z,101943.59
2022-09-02T15:34:01.430Z,101931.25
2022-09-02T15:36:29.276Z,101926.16
2022-09-02T15:38:58.424Z,101925.28
2022-09-02T15:41:27.529Z,101930.16
2022-09-02T15:43:55.405Z,101928.97
2022-09-02T15:46:26.578Z,101927.94
2022-09-02T15:48:57.912Z,101933.09
2022-09-02T15:51:29.707Z,101937.69
2022-09-02T15:54:00.376Z,101933.72
2022-09-02T15:56:29.739Z,101936.72
2022-09-02T15:58:58.961Z,101922.56
2022-09-02T16:01:27.759Z,101931.03
2022-09-02T16:03:56.985Z,101931.75
2022-09-02T16:06:25.358Z,101934.41
2022-09-02T16:08:53.382Z,101931.91
2022-09-02T16:11:22.877Z,101926.94
2022-09-02T16:13:50.917Z,101919.41
2022-09-02T16:16:19.414Z,101915.59
2022-09-02T16:18:51.398Z,101924.19
2022-09-02T16:21:19.533Z,101915.59
2022-09-02T16:23:49.530Z,101921.69
2022-09-02T16:26:24.945Z,101920.03
2022-09-02T16:28:55.543Z,101917.94
2022-09-02T16:31:25.292Z,101918.59
2022-09-02T16:33:54.241Z,101913.59
2022-09-02T16:36:22.457Z,101915.22
2022-09-02T16:38:50.231Z,101911.06
2022-09-02T16:41:27.244Z,101915.09
2022-09-02T16:43:55.520Z,101915.88
2022-09-02T16:46:23.394Z,101916.22
2022-09-02T16:48:51.252Z,101907.09
2022-09-02T16:51:19.397Z,101911.00
2022-09-02T16:53:47.312Z,101908.13
2022-09-02T16:56:17.082Z,101908.50
2022-09-02T16:58:46.254Z,101905.38
2022-09-02T17:01:14.547Z,101897.03
2022-09-02T17:03:42.963Z,101898.44
2022-09-02T17:06:10.748Z,101896.84
2022-09-02T17:08:38.546Z,101901.53
2022-09-02T17:11:19.944Z,101900.97
2022-09-02T17:13:50.543Z,101901.47
2022-09-02T17:16:19.050Z,101904.69
2022-09-02T17:18:46.894Z,101906.25
2022-09-02T17:21:20.268Z,101903.19
2022-09-02T17:23:48.492Z,101899.47
2022-09-02T17:26:17.339Z,101905.09
2022-09-02T17:28:47.976Z,101889.97
2022-09-02T17:31:25.947Z,101886.09
2022-09-02T17:33:55.298Z,101888.47
2022-09-02T17:36:26.033Z,101883.97
2022-09-02T17:38:56.953Z,101888.69
2022-09-02T17:41:42.623Z,101888.81
2022-09-02T17:44:10.763Z,101886.88
2022-09-02T17:46:39.903Z,101878.94
2022-09-02T17:49:16.949Z,101883.41
2022-09-02T17:51:45.297Z,101872.88
2022-09-02T17:54:14.300Z,101880.94
2022-09-02T17:57:03.748Z,101881.16
2022-09-02T17:59:41.641Z,101875.41
2022-09-02T18:02:37.469Z,101884.16
2022-09-02T18:05:16.593Z,101877.13
2022-09-02T18:07:51.138Z,101881.47
2022-09-02T18:10:18.976Z,101882.13
2022-09-02T18:12:47.169Z,101874.28
2022-09-02T18:15:18.579Z,101874.84
2022-09-02T18:17:51.577Z,101873.84
2022-09-02T18:20:27.976Z,101872.66
2022-09-02T18:23:15.531Z,101865.81
2022-09-02T18:25:58.951Z,101859.63
2022-09-02T18:28:42.078Z,101854.59
2022-09-02T18:31:21.882Z,101867.66
2022-09-02T18:34:04.399Z,101855.25
2022-09-02T18:36:39.192Z,101837.97
2022-09-02T18:39:21.471Z,101841.69
2022-09-02T18:42:03.205Z,101836.31
2022-09-02T18:44:39.126Z,101846.88
2022-09-02T18:47:11.101Z,101844.72
2022-09-02T18:49:40.527Z,101827.09
2022-09-02T18:52:11.178Z,101823.41
2022-09-02T18:54:46.394Z,101825.09
2022-09-02T18:57:14.643Z,101816.19
2022-09-02T18:59:48.567Z,101806.97
2022-09-02T19:02:24.833Z,101804.28
2022-09-02T19:04:54.644Z,101819.72
2022-09-02T19:07:39.653Z,101813.00
2022-09-02T19:10:09.047Z,101812.97
2022-09-02T19:12:39.198Z,101819.03
2022-09-02T19:15:09.513Z,101826.75
2022-09-02T19:17:41.363Z,101828.03
2022-09-02T19:20:11.018Z,101827.00
2022-09-02T19:22:43.327Z,101833.28
2022-09-02T19:25:14.194Z,101824.38
2022-09-02T19:27:44.737Z,101821.84
2022-09-02T19:30:14.823Z,101825.53
2022-09-02T19:32:46.330Z,101833.06
2022-09-02T19:35:18.253Z,101834.41
2022-09-02T19:37:47.130Z,101828.16
2022-09-02T19:40:20.067Z,101826.00
2022-09-02T19:42:49.110Z,101836.44
2022-09-02T19:45:16.983Z,101827.22
2022-09-02T19:48:06.027Z,101830.28
2022-09-02T19:50:34.105Z,101820.34
2022-09-02T19:53:01.926Z,101812.91
2022-09-02T19:55:29.757Z,101817.72
2022-09-02T19:57:59.920Z,101820.84
2022-09-02T20:00:27.904Z,101813.69
2022-09-02T20:02:56.144Z,101823.88
2022-09-02T20:05:25.115Z,101827.22
2022-09-02T20:07:54.902Z,101821.94
2022-09-02T20:10:27.651Z,101835.97
2022-09-02T20:12:56.059Z,101826.38
2022-09-02T20:15:23.835Z,101835.78
2022-09-02T20:17:51.564Z,101828.00
2022-09-02T20:20:22.476Z,101834.94
2022-09-02T20:22:55.222Z,101815.09
2022-09-02T20:25:35.782Z,101825.72
2022-09-02T20:28:13.983Z,101821.94
2022-09-02T20:30:46.420Z,101825.72
2022-09-02T20:33:19.487Z,101822.25
2022-09-02T20:36:12.095Z,101815.34
2022-09-02T20:38:58.720Z,101820.28
2022-09-02T20:41:36.238Z,101820.06
2022-09-02T20:44:20.209Z,101813.19
2022-09-02T20:47:08.093Z,101802.06
2022-09-02T20:49:55.810Z,101800.44
2022-09-02T20:52:31.423Z,101821.16
2022-09-02T20:55:07.415Z,101826.69
2022-09-02T20:58:13.035Z,101826.13
2022-09-02T21:00:49.194Z,101801.38
2022-09-02T21:03:17.848Z,101781.31
2022-09-02T21:05:53.097Z,101775.78
2022-09-02T21:08:28.388Z,101794.56
2022-09-02T21:11:00.049Z,101776.28
2022-09-02T21:13:38.347Z,101761.94
2022-09-02T21:16:13.088Z,101783.63
2022-09-02T21:18:57.752Z,101769.44
2022-09-02T21:21:31.391Z,101746.16
2022-09-02T21:24:04.557Z,101760.94
2022-09-02T21:26:43.012Z,101753.75
2022-09-02T21:29:20.895Z,101737.31
2022-09-02T21:31:53.484Z,101739.00
2022-09-02T21:34:27.406Z,101737.94
2022-09-02T21:36:56.728Z,101729.59
2022-09-02T21:39:28.198Z,101732.16
2022-09-02T21:42:09.317Z,101726.97
2022-09-02T21:44:50.331Z,101708.34
2022-09-02T21:47:22.975Z,101690.88
2022-09-02T21:50:10.888Z,101689.97
2022-09-02T21:52:51.387Z,101680.72
2022-09-02T21:55:35.315Z,101664.56
2022-09-02T21:58:20.172Z,101662.78
2022-09-02T22:00:55.669Z,101641.59
2022-09-02T22:03:39.982Z,101635.59
2022-09-02T22:06:13.608Z,101650.31
2022-09-02T22:08:47.066Z,101633.53
2022-09-02T22:11:23.235Z,101632.81
2022-09-02T22:13:50.956Z,101631.75
2022-09-02T22:16:32.722Z,101642.38
2022-09-02T22:19:02.727Z,101629.25
2022-09-02T22:21:37.976Z,101609.09
2022-09-02T22:24:06.782Z,101594.78
2022-09-02T22:26:41.566Z,101604.03
2022-09-02T22:29:18.086Z,101564.81
2022-09-02T22:31:54.059Z,101573.81
2022-09-02T22:34:23.596Z,101559.06
2022-09-02T22:37:00.554Z,101548.38
2022-09-02T22:39:38.209Z,101542.00
2022-09-02T22:42:17.902Z,101532.78
2022-09-02T22:45:09.752Z,101527.03
2022-09-02T22:48:01.819Z,101526.84
2022-09-02T22:50:52.708Z,101522.25
2022-09-02T22:53:20.463Z,101522.09
2022-09-02T22:55:58.926Z,101522.81
2022-09-02T22:59:11.064Z,101521.41
2022-09-02T23:01:53.744Z,101516.75
2022-09-02T23:04:35.333Z,101510.19
2022-09-02T23:07:05.156Z,101513.75
2022-09-02T23:09:34.312Z,101502.63
2022-09-02T23:12:14.151Z,101512.56
2022-09-02T23:14:51.382Z,101506.41
2022-09-02T23:17:34.679Z,101513.22
2022-09-02T23:20:14.678Z,101513.34
2022-09-02T23:23:03.291Z,101502.19
2022-09-02T23:25:47.558Z,101499.91
2022-09-02T23:28:19.025Z,101501.41
2022-09-02T23:31:01.242Z,101501.97
2022-09-02T23:33:51.276Z,101499.88
2022-09-02T23:36:35.078Z,101485.47
2022-09-02T23:39:24.116Z,101491.94
2022-09-02T23:41:53.390Z,101489.38
2022-09-02T23:44:22.255Z,101476.22
2022-09-02T23:47:00.974Z,101480.53
2022-09-02T23:49:38.933Z,101486.25
2022-09-02T23:52:24.443Z,101481.75
2022-09-02T23:55:04.447Z,101482.59
2022-09-02T23:58:00.477Z,101481.53
